sensor_id;sensor_type;location;lat;lon;timestamp;pressure;altitude;pressure_sealevel;temperature;humidity
66560;BME280;53413;49.878;8.142;2024-03-06T00:02:07;100088.66;;;5.63;100.00
66560;BME280;53413;49.878;8.142;2024-03-06T00:04:33;100087.75;;;5.64;100.00
66560;BME280;53413;49.878;8.142;2024-03-06T00:06:59;100087.81;;;5.61;100.00
66560;BME280;53413;49.878;8.142;2024-03-06T00:09:25;100094.69;;;5.64;100.00
66560;BME280;53413;49.878;8.142;2024-03-06T00:11:52;100097.31;;;5.62;100.00
66560;BME280;53413;49.878;8.142;2024-03-06T00:14:18;100101.66;;;5.62;100.00
66560;BME280;53413;49.878;8.142;2024-03-06T00:16:43;100104.28;;;5.60;100.00
66560;BME280;53413;49.878;8.142;2024-03-06T00:19:09;100105.19;;;5.58;100.00
66560;BME280;53413;49.878;8.142;2024-03-06T00:21:35;100110.53;;;5.48;100.00
66560;BME280;53413;49.878;8.142;2024-03-06T00:24:02;100116.78;;;5.36;100.00
66560;BME280;53413;49.878;8.142;2024-03-06T00:26:27;100116.94;;;5.26;100.00
66560;BME280;53413;49.878;8.142;2024-03-06T00:28:52;100115.38;;;5.14;100.00
66560;BME280;53413;49.878;8.142;2024-03-06T00:31:18;100114.69;;;5.01;100.00
66560;BME280;53413;49.878;8.142;2024-03-06T00:33:43;100123.50;;;4.89;100.00
66560;BME280;53413;49.878;8.142;2024-03-06T00:36:08;100126.16;;;4.83;100.00
66560;BME280;53413;49.878;8.142;2024-03-06T00:38:34;100122.78;;;4.76;100.00
66560;BME280;53413;49.878;8.142;2024-03-06T00:40:59;100125.44;;;4.71;100.00
66560;BME280;53413;49.878;8.142;2024-03-06T00:43:24;100130.69;;;4.67;100.00
66560;BME280;53413;49.878;8.142;2024-03-06T00:45:50;100135.94;;;4.62;100.00
66560;BME280;53413;49.878;8.142;2024-03-06T00:48:15;100140.34;;;4.57;100.00
66560;BME280;53413;49.878;8.142;2024-03-06T00:50:41;100140.41;;;4.51;100.00
66560;BME280;53413;49.878;8.142;2024-03-06T00:53:06;100136.13;;;4.45;100.00
66560;BME280;53413;49.878;8.142;2024-03-06T00:55:32;100143.16;;;4.37;100.00
66560;BME280;53413;49.878;8.142;2024-03-06T00:57:57;100145.81;;;4.29;100.00
66560;BME280;53413;49.878;8.142;2024-03-06T01:00:22;100140.75;;;4.20;100.00
66560;BME280;53413;49.878;8.142;2024-03-06T01:02:48;100139.97;;;4.10;100.00
66560;BME280;53413;49.878;8.142;2024-03-06T01:05:13;100150.41;;;4.00;100.00
66560;BME280;53413;49.878;8.142;2024-03-06T01:07:39;100158.28;;;3.90;100.00
66560;BME280;53413;49.878;8.142;2024-03-06T01:10:05;100160.09;;;3.81;100.00
66560;BME280;53413;49.878;8.142;2024-03-06T01:12:34;100156.66;;;3.76;100.00
66560;BME280;53413;49.878;8.142;2024-03-06T01:15:00;100167.09;;;3.70;100.00
66560;BME280;53413;49.878;8.142;2024-03-06T01:17:25;100167.16;;;3.59;100.00
66560;BME280;53413;49.878;8.142;2024-03-06T01:19:51;100163.75;;;3.51;100.00
66560;BME280;53413;49.878;8.142;2024-03-06T01:22:16;100169.00;;;3.42;100.00
66560;BME280;53413;49.878;8.142;2024-03-06T01:24:42;100172.50;;;3.31;100.00
66560;BME280;53413;49.878;8.142;2024-03-06T01:27:08;100178.63;;;3.22;100.00
66560;BME280;53413;49.878;8.142;2024-03-06T01:29:33;100184.69;;;3.14;100.00
66560;BME280;53413;49.878;8.142;2024-03-06T01:31:59;100183.84;;;3.12;100.00
66560;BME280;53413;49.878;8.142;2024-03-06T01:34:25;100180.44;;;3.03;100.00
66560;BME280;53413;49.878;8.142;2024-03-06T01:36:51;100178.72;;;2.99;100.00
66560;BME280;53413;49.878;8.142;2024-03-06T01:39:16;100175.28;;;2.92;100.00
66560;BME280;53413;49.878;8.142;2024-03-06T01:41:46;100166.69;;;2.83;100.00
66560;BME280;53413;49.878;8.142;2024-03-06T01:44:12;100176.22;;;2.74;100.00
66560;BME280;53413;49.878;8.142;2024-03-06T01:46:38;100172.81;;;2.69;100.00
66560;BME280;53413;49.878;8.142;2024-03-06T01:49:03;100178.00;;;2.65;100.00
66560;BME280;53413;49.878;8.142;2024-03-06T01:51:29;100175.41;;;2.61;100.00
66560;BME280;53413;49.878;8.142;2024-03-06T01:53:55;100184.03;;;2.62;100.00
66560;BME280;53413;49.878;8.142;2024-03-06T01:56:21;100180.56;;;2.63;100.00
66560;BME280;53413;49.878;8.142;2024-03-06T01:58:47;100182.28;;;2.70;100.00
66560;BME280;53413;49.878;8.142;2024-03-06T02:01:12;100177.97;;;2.74;100.00
66560;BME280;53413;49.878;8.142;2024-03-06T02:03:38;100183.09;;;2.77;100.00
66560;BME280;53413;49.878;8.142;2024-03-06T02:06:05;100185.69;;;2.82;100.00
66560;BME280;53413;49.878;8.142;2024-03-06T02:08:31;100184.81;;;2.92;100.00
66560;BME280;53413;49.878;8.142;2024-03-06T02:10:57;100188.19;;;3.08;100.00
66560;BME280;53413;49.878;8.142;2024-03-06T02:13:22;100190.69;;;3.22;100.00
66560;BME280;53413;49.878;8.142;2024-03-06T02:15:48;100193.19;;;3.39;100.00
66560;BME280;53413;49.878;8.142;2024-03-06T02:18:14;100192.25;;;3.54;100.00
66560;BME280;53413;49.878;8.142;2024-03-06T02:20:39;100183.50;;;3.69;100.00
66560;BME280;53413;49.878;8.142;2024-03-06T02:23:07;100185.13;;;3.82;100.00
66560;BME280;53413;49.878;8.142;2024-03-06T02:25:33;100184.16;;;3.94;100.00
66560;BME280;53413;49.878;8.142;2024-03-06T02:27:58;100182.38;;;4.03;100.00
66560;BME280;53413;49.878;8.142;2024-03-06T02:30:24;100178.84;;;4.13;100.00
66560;BME280;53413;49.878;8.142;2024-03-06T02:32:49;100175.28;;;4.22;100.00
66560;BME280;53413;49.878;8.142;2024-03-06T02:35:14;100172.59;;;4.29;100.00
66560;BME280;53413;49.878;8.142;2024-03-06T02:37:43;100167.34;;;4.37;100.00
66560;BME280;53413;49.878;8.142;2024-03-06T02:40:09;100169.00;;;4.46;100.00
66560;BME280;53413;49.878;8.142;2024-03-06T02:42:36;100164.59;;;4.53;100.00
66560;BME280;53413;49.878;8.142;2024-03-06T02:45:05;100161.09;;;4.57;100.00
66560;BME280;53413;49.878;8.142;2024-03-06T02:47:30;100155.00;;;4.62;100.00
66560;BME280;53413;49.878;8.142;2024-03-06T02:49:55;100151.47;;;4.67;100.00
66560;BME280;53413;49.878;8.142;2024-03-06T02:52:21;100160.97;;;4.68;100.00
66560;BME280;53413;49.878;8.142;2024-03-06T02:54:47;100156.63;;;4.70;100.00
66560;BME280;53413;49.878;8.142;2024-03-06T02:57:12;100155.75;;;4.69;100.00
66560;BME280;53413;49.878;8.142;2024-03-06T02:59:39;100146.28;;;4.63;100.00
66560;BME280;53413;49.878;8.142;2024-03-06T03:02:05;100147.19;;;4.62;100.00
66560;BME280;53413;49.878;8.142;2024-03-06T03:04:31;100153.25;;;4.60;100.00
66560;BME280;53413;49.878;8.142;2024-03-06T03:06:56;100153.25;;;4.61;100.00
66560;BME280;53413;49.878;8.142;2024-03-06T03:09:22;100162.75;;;4.64;100.00
66560;BME280;53413;49.878;8.142;2024-03-06T03:11:48;100160.97;;;4.68;100.00
66560;BME280;53413;49.878;8.142;2024-03-06T03:14:13;100166.97;;;4.71;100.00
66560;BME280;53413;49.878;8.142;2024-03-06T03:16:39;100169.59;;;4.70;100.00
66560;BME280;53413;49.878;8.142;2024-03-06T03:19:04;100173.09;;;4.67;100.00
66560;BME280;53413;49.878;8.142;2024-03-06T03:21:30;100171.38;;;4.65;100.00
66560;BME280;53413;49.878;8.142;2024-03-06T03:23:55;100175.75;;;4.62;100.00
66560;BME280;53413;49.878;8.142;2024-03-06T03:26:21;100180.97;;;4.59;100.00
66560;BME280;53413;49.878;8.142;2024-03-06T03:28:46;100187.94;;;4.54;100.00
66560;BME280;53413;49.878;8.142;2024-03-06T03:31:12;100178.47;;;4.50;100.00
66560;BME280;53413;49.878;8.142;2024-03-06T03:33:40;100177.66;;;4.45;100.00
66560;BME280;53413;49.878;8.142;2024-03-06T03:36:07;100180.31;;;4.37;100.00
66560;BME280;53413;49.878;8.142;2024-03-06T03:38:33;100183.03;;;4.26;100.00
66560;BME280;53413;49.878;8.142;2024-03-06T03:41:01;100183.09;;;4.17;100.00
66560;BME280;53413;49.878;8.142;2024-03-06T03:43:29;100180.63;;;4.05;100.00
66560;BME280;53413;49.878;8.142;2024-03-06T03:45:54;100191.09;;;3.94;100.00
66560;BME280;53413;49.878;8.142;2024-03-06T03:48:20;100186.84;;;3.82;100.00
66560;BME280;53413;49.878;8.142;2024-03-06T03:50:45;100185.22;;;3.72;100.00
66560;BME280;53413;49.878;8.142;2024-03-06T03:53:10;100180.94;;;3.63;100.00
66560;BME280;53413;49.878;8.142;2024-03-06T03:55:36;100187.06;;;3.56;100.00
66560;BME280;53413;49.878;8.142;2024-03-06T03:58:01;100181.06;;;3.47;100.00
66560;BME280;53413;49.878;8.142;2024-03-06T04:00:26;100185.41;;;3.41;100.00
66560;BME280;53413;49.878;8.142;2024-03-06T04:02:52;100185.44;;;3.34;100.00
66560;BME280;53413;49.878;8.142;2024-03-06T04:05:17;100192.41;;;3.29;100.00
66560;BME280;53413;49.878;8.142;2024-03-06T04:07:43;100192.41;;;3.26;100.00
66560;BME280;53413;49.878;8.142;2024-03-06T04:10:10;100193.28;;;3.23;100.00
66560;BME280;53413;49.878;8.142;2024-03-06T04:12:36;100195.88;;;3.22;100.00
66560;BME280;53413;49.878;8.142;2024-03-06T04:15:03;100203.66;;;3.19;100.00
66560;BME280;53413;49.878;8.142;2024-03-06T04:17:29;100204.53;;;3.16;100.00
66560;BME280;53413;49.878;8.142;2024-03-06T04:19:54;100207.13;;;3.19;100.00
66560;BME280;53413;49.878;8.142;2024-03-06T04:22:20;100204.50;;;3.21;100.00
66560;BME280;53413;49.878;8.142;2024-03-06T04:24:46;100214.00;;;3.22;100.00
66560;BME280;53413;49.878;8.142;2024-03-06T04:27:11;100217.44;;;3.24;100.00
66560;BME280;53413;49.878;8.142;2024-03-06T04:29:36;100217.44;;;3.24;100.00
66560;BME280;53413;49.878;8.142;2024-03-06T04:32:02;100220.91;;;3.25;100.00
66560;BME280;53413;49.878;8.142;2024-03-06T04:34:27;100230.41;;;3.24;100.00
66560;BME280;53413;49.878;8.142;2024-03-06T04:36:52;100226.09;;;3.25;100.00
66560;BME280;53413;49.878;8.142;2024-03-06T04:39:18;100221.78;;;3.23;100.00
66560;BME280;53413;49.878;8.142;2024-03-06T04:41:43;100224.34;;;3.22;100.00
66560;BME280;53413;49.878;8.142;2024-03-06T04:44:08;100231.25;;;3.20;100.00
66560;BME280;53413;49.878;8.142;2024-03-06T04:46:34;100233.00;;;3.16;100.00
66560;BME280;53413;49.878;8.142;2024-03-06T04:48:59;100237.34;;;3.10;100.00
66560;BME280;53413;49.878;8.142;2024-03-06T04:51:24;100249.47;;;3.03;100.00
66560;BME280;53413;49.878;8.142;2024-03-06T04:53:50;100245.19;;;2.96;100.00
66560;BME280;53413;49.878;8.142;2024-03-06T04:56:15;100253.84;;;2.85;100.00
66560;BME280;53413;49.878;8.142;2024-03-06T04:58:44;100247.81;;;2.75;100.00
66560;BME280;53413;49.878;8.142;2024-03-06T05:01:09;100251.28;;;2.67;100.00
66560;BME280;53413;49.878;8.142;2024-03-06T05:03:35;100252.16;;;2.59;100.00
66560;BME280;53413;49.878;8.142;2024-03-06T05:06:01;100259.06;;;2.53;100.00
66560;BME280;53413;49.878;8.142;2024-03-06T05:08:26;100264.25;;;2.46;100.00
66560;BME280;53413;49.878;8.142;2024-03-06T05:10:52;100274.59;;;2.40;100.00
66560;BME280;53413;49.878;8.142;2024-03-06T05:13:17;100277.19;;;2.34;100.00
66560;BME280;53413;49.878;8.142;2024-03-06T05:15:42;100274.59;;;2.25;100.00
66560;BME280;53413;49.878;8.142;2024-03-06T05:18:08;100280.63;;;2.13;100.00
66560;BME280;53413;49.878;8.142;2024-03-06T05:20:34;100274.59;;;2.03;100.00
66560;BME280;53413;49.878;8.142;2024-03-06T05:23:00;100284.06;;;1.95;100.00
66560;BME280;53413;49.878;8.142;2024-03-06T05:25:26;100290.06;;;1.88;100.00
66560;BME280;53413;49.878;8.142;2024-03-06T05:27:51;100290.91;;;1.82;100.00
66560;BME280;53413;49.878;8.142;2024-03-06T05:30:16;100296.94;;;1.81;100.00
66560;BME280;53413;49.878;8.142;2024-03-06T05:32:42;100301.25;;;1.77;100.00
66560;BME280;53413;49.878;8.142;2024-03-06T05:35:07;100309.88;;;1.73;100.00
66560;BME280;53413;49.878;8.142;2024-03-06T05:37:37;100310.72;;;1.72;100.00
66560;BME280;53413;49.878;8.142;2024-03-06T05:40:02;100315.88;;;1.69;100.00
66560;BME280;53413;49.878;8.142;2024-03-06T05:42:30;100319.28;;;1.65;100.00
66560;BME280;53413;49.878;8.142;2024-03-06T05:44:56;100318.41;;;1.63;100.00
66560;BME280;53413;49.878;8.142;2024-03-06T05:47:25;100326.19;;;1.60;100.00
66560;BME280;53413;49.878;8.142;2024-03-06T05:49:51;100331.34;;;1.61;100.00
66560;BME280;53413;49.878;8.142;2024-03-06T05:52:16;100336.53;;;1.64;100.00
66560;BME280;53413;49.878;8.142;2024-03-06T05:54:42;100331.38;;;1.67;100.00
66560;BME280;53413;49.878;8.142;2024-03-06T05:57:07;100332.25;;;1.71;100.00
66560;BME280;53413;49.878;8.142;2024-03-06T05:59:32;100329.66;;;1.73;100.00
66560;BME280;53413;49.878;8.142;2024-03-06T06:01:58;100335.69;;;1.75;100.00
66560;BME280;53413;49.878;8.142;2024-03-06T06:04:23;100336.53;;;1.75;100.00
66560;BME280;53413;49.878;8.142;2024-03-06T06:06:48;100347.75;;;1.77;100.00
66560;BME280;53413;49.878;8.142;2024-03-06T06:09:14;100349.50;;;1.81;100.00
66560;BME280;53413;49.878;8.142;2024-03-06T06:11:44;100352.09;;;1.86;100.00
66560;BME280;53413;49.878;8.142;2024-03-06T06:14:09;100350.38;;;1.90;100.00
66560;BME280;53413;49.878;8.142;2024-03-06T06:16:36;100343.50;;;1.95;100.00
66560;BME280;53413;49.878;8.142;2024-03-06T06:19:02;100344.38;;;2.00;100.00
66560;BME280;53413;49.878;8.142;2024-03-06T06:21:27;100340.94;;;2.03;100.00
66560;BME280;53413;49.878;8.142;2024-03-06T06:23:52;100352.16;;;2.06;100.00
66560;BME280;53413;49.878;8.142;2024-03-06T06:26:18;100358.19;;;2.14;100.00
66560;BME280;53413;49.878;8.142;2024-03-06T06:28:46;100358.22;;;2.25;100.00
66560;BME280;53413;49.878;8.142;2024-03-06T06:31:11;100357.38;;;2.39;100.00
66560;BME280;53413;49.878;8.142;2024-03-06T06:33:37;100359.13;;;2.57;100.00
66560;BME280;53413;49.878;8.142;2024-03-06T06:36:02;100362.56;;;2.73;100.00
66560;BME280;53413;49.878;8.142;2024-03-06T06:38:27;100359.09;;;2.91;100.00
66560;BME280;53413;49.878;8.142;2024-03-06T06:40:53;100359.06;;;3.08;100.00
66560;BME280;53413;49.878;8.142;2024-03-06T06:43:18;100352.97;;;3.23;100.00
66560;BME280;53413;49.878;8.142;2024-03-06T06:45:43;100364.16;;;3.37;100.00
66560;BME280;53413;49.878;8.142;2024-03-06T06:48:09;100361.53;;;3.50;100.00
66560;BME280;53413;49.878;8.142;2024-03-06T06:50:35;100361.50;;;3.62;100.00
66560;BME280;53413;49.878;8.142;2024-03-06T06:53:00;100358.00;;;3.69;100.00
66560;BME280;53413;49.878;8.142;2024-03-06T06:55:26;100358.81;;;3.81;100.00
66560;BME280;53413;49.878;8.142;2024-03-06T06:57:51;100362.25;;;3.89;100.00
66560;BME280;53413;49.878;8.142;2024-03-06T07:00:17;100371.69;;;3.96;100.00
66560;BME280;53413;49.878;8.142;2024-03-06T07:02:44;100371.69;;;4.03;100.00
66560;BME280;53413;49.878;8.142;2024-03-06T07:05:10;100374.22;;;4.10;100.00
66560;BME280;53413;49.878;8.142;2024-03-06T07:07:36;100373.34;;;4.14;100.00
66560;BME280;53413;49.878;8.142;2024-03-06T07:10:02;100375.03;;;4.23;100.00
66560;BME280;53413;49.878;8.142;2024-03-06T07:12:28;100376.69;;;4.34;100.00
66560;BME280;53413;49.878;8.142;2024-03-06T07:14:54;100370.47;;;4.53;100.00
66560;BME280;53413;49.878;8.142;2024-03-06T07:17:19;100384.19;;;4.74;100.00
66560;BME280;53413;49.878;8.142;2024-03-06T07:19:45;100381.28;;;5.05;100.00
66560;BME280;53413;49.878;8.142;2024-03-06T07:22:10;100379.13;;;5.46;100.00
66560;BME280;53413;49.878;8.142;2024-03-06T07:24:35;100376.78;;;5.96;100.00
66560;BME280;53413;49.878;8.142;2024-03-06T07:27:02;100387.19;;;6.61;100.00
66560;BME280;53413;49.878;8.142;2024-03-06T07:29:27;100383.06;;;7.91;100.00
66560;BME280;53413;49.878;8.142;2024-03-06T07:31:53;100374.22;;;8.75;100.00
66560;BME280;53413;49.878;8.142;2024-03-06T07:34:21;100379.13;;;9.22;100.00
66560;BME280;53413;49.878;8.142;2024-03-06T07:36:47;100386.22;;;9.17;100.00
66560;BME280;53413;49.878;8.142;2024-03-06T07:39:15;100387.00;;;9.20;100.00
66560;BME280;53413;49.878;8.142;2024-03-06T07:41:41;100389.38;;;9.30;100.00
66560;BME280;53413;49.878;8.142;2024-03-06T07:44:06;100390.88;;;9.38;100.00
66560;BME280;53413;49.878;8.142;2024-03-06T07:46:32;100393.47;;;9.40;100.00
66560;BME280;53413;49.878;8.142;2024-03-06T07:48:57;100397.13;;;9.66;100.00
66560;BME280;53413;49.878;8.142;2024-03-06T07:51:23;100399.72;;;9.96;100.00
66560;BME280;53413;49.878;8.142;2024-03-06T07:53:48;100400.84;;;10.74;100.00
66560;BME280;53413;49.878;8.142;2024-03-06T07:56:15;100394.44;;;11.60;100.00
66560;BME280;53413;49.878;8.142;2024-03-06T07:58:41;100389.34;;;15.21;91.05
66560;BME280;53413;49.878;8.142;2024-03-06T08:01:06;100392.56;;;18.07;67.46
66560;BME280;53413;49.878;8.142;2024-03-06T08:03:33;100390.16;;;19.12;60.68
66560;BME280;53413;49.878;8.142;2024-03-06T08:05:59;100387.25;;;19.80;57.02
66560;BME280;53413;49.878;8.142;2024-03-06T08:08:24;100387.16;;;19.94;55.08
66560;BME280;53413;49.878;8.142;2024-03-06T08:10:50;100391.50;;;20.57;53.94
66560;BME280;53413;49.878;8.142;2024-03-06T08:13:15;100391.63;;;22.73;50.61
66560;BME280;53413;49.878;8.142;2024-03-06T08:15:41;100388.22;;;24.67;46.14
66560;BME280;53413;49.878;8.142;2024-03-06T08:18:09;100384.81;;;25.04;43.57
66560;BME280;53413;49.878;8.142;2024-03-06T08:20:34;100388.59;;;24.23;44.00
66560;BME280;53413;49.878;8.142;2024-03-06T08:23:00;100389.53;;;23.71;43.08
66560;BME280;53413;49.878;8.142;2024-03-06T08:25:25;100394.16;;;23.17;46.43
66560;BME280;53413;49.878;8.142;2024-03-06T08:27:51;100414.25;;;22.90;46.15
66560;BME280;53413;49.878;8.142;2024-03-06T08:30:16;100408.22;;;21.30;47.09
66560;BME280;53413;49.878;8.142;2024-03-06T08:32:42;100407.88;;;20.64;47.56
66560;BME280;53413;49.878;8.142;2024-03-06T08:35:11;100419.44;;;18.43;51.10
66560;BME280;53413;49.878;8.142;2024-03-06T08:37:38;100427.66;;;16.61;56.98
66560;BME280;53413;49.878;8.142;2024-03-06T08:40:04;100427.03;;;15.59;59.33
66560;BME280;53413;49.878;8.142;2024-03-06T08:42:30;100440.81;;;15.13;61.90
66560;BME280;53413;49.878;8.142;2024-03-06T08:44:55;100437.09;;;14.62;62.14
66560;BME280;53413;49.878;8.142;2024-03-06T08:47:22;100443.03;;;14.49;65.02
66560;BME280;53413;49.878;8.142;2024-03-06T08:49:47;100438.00;;;14.81;64.50
66560;BME280;53413;49.878;8.142;2024-03-06T08:52:13;100438.19;;;14.95;63.19
66560;BME280;53413;49.878;8.142;2024-03-06T08:54:40;100430.03;;;15.00;64.39
66560;BME280;53413;49.878;8.142;2024-03-06T08:57:06;100439.03;;;14.96;63.95
66560;BME280;53413;49.878;8.142;2024-03-06T08:59:34;100443.00;;;15.04;63.95
66560;BME280;53413;49.878;8.142;2024-03-06T09:02:12;100444.63;;;14.89;64.85
66560;BME280;53413;49.878;8.142;2024-03-06T09:04:38;100460.16;;;14.76;65.21
66560;BME280;53413;49.878;8.142;2024-03-06T09:07:03;100451.19;;;14.81;65.26
66560;BME280;53413;49.878;8.142;2024-03-06T09:09:29;100454.25;;;14.90;65.41
66560;BME280;53413;49.878;8.142;2024-03-06T09:11:54;100444.53;;;14.91;65.15
66560;BME280;53413;49.878;8.142;2024-03-06T09:14:19;100456.16;;;14.87;64.98
66560;BME280;53413;49.878;8.142;2024-03-06T09:16:45;100463.09;;;14.89;65.46
66560;BME280;53413;49.878;8.142;2024-03-06T09:19:11;100464.19;;;15.03;65.72
66560;BME280;53413;49.878;8.142;2024-03-06T09:21:36;100459.75;;;15.03;66.04
66560;BME280;53413;49.878;8.142;2024-03-06T09:24:02;100457.44;;;14.97;65.65
66560;BME280;53413;49.878;8.142;2024-03-06T09:26:27;100459.94;;;15.18;66.29
66560;BME280;53413;49.878;8.142;2024-03-06T09:28:52;100454.59;;;15.70;65.17
66560;BME280;53413;49.878;8.142;2024-03-06T09:31:18;100455.44;;;16.85;62.33
66560;BME280;53413;49.878;8.142;2024-03-06T09:33:43;100451.81;;;19.56;58.33
66560;BME280;53413;49.878;8.142;2024-03-06T09:36:11;100441.66;;;21.70;53.01
66560;BME280;53413;49.878;8.142;2024-03-06T09:38:39;100443.94;;;22.09;50.45
66560;BME280;53413;49.878;8.142;2024-03-06T09:41:07;100448.66;;;21.71;49.78
66560;BME280;53413;49.878;8.142;2024-03-06T09:43:33;100456.41;;;21.04;50.20
66560;BME280;53413;49.878;8.142;2024-03-06T09:45:58;100452.75;;;21.05;50.17
66560;BME280;53413;49.878;8.142;2024-03-06T09:48:24;100457.41;;;21.73;51.02
66560;BME280;53413;49.878;8.142;2024-03-06T09:50:51;100451.78;;;23.21;47.36
66560;BME280;53413;49.878;8.142;2024-03-06T09:53:21;100445.47;;;25.15;44.59
66560;BME280;53413;49.878;8.142;2024-03-06T09:55:47;100442.72;;;26.94;41.52
66560;BME280;53413;49.878;8.142;2024-03-06T09:58:14;100440.81;;;27.57;38.81
66560;BME280;53413;49.878;8.142;2024-03-06T10:00:39;100440.34;;;28.04;37.71
66560;BME280;53413;49.878;8.142;2024-03-06T10:03:05;100440.31;;;27.88;36.59
66560;BME280;53413;49.878;8.142;2024-03-06T10:05:31;100445.50;;;26.74;38.66
66560;BME280;53413;49.878;8.142;2024-03-06T10:08:00;100446.81;;;25.96;40.32
66560;BME280;53413;49.878;8.142;2024-03-06T10:10:25;100446.84;;;24.40;41.66
66560;BME280;53413;49.878;8.142;2024-03-06T10:12:52;100454.97;;;23.57;41.86
66560;BME280;53413;49.878;8.142;2024-03-06T10:15:18;100449.13;;;23.10;42.88
66560;BME280;53413;49.878;8.142;2024-03-06T10:17:43;100460.91;;;22.86;43.81
66560;BME280;53413;49.878;8.142;2024-03-06T10:22:50;100463.97;;;20.12;47.44
66560;BME280;53413;49.878;8.142;2024-03-06T10:25:20;100476.00;;;18.85;49.90
66560;BME280;53413;49.878;8.142;2024-03-06T10:28:07;100474.53;;;17.67;51.79
66560;BME280;53413;49.878;8.142;2024-03-06T10:30:36;100470.09;;;16.76;54.67
66560;BME280;53413;49.878;8.142;2024-03-06T10:33:03;100474.06;;;16.19;56.84
66560;BME280;53413;49.878;8.142;2024-03-06T10:35:29;100468.81;;;15.85;58.41
66560;BME280;53413;49.878;8.142;2024-03-06T10:37:54;100468.31;;;15.77;59.06
66560;BME280;53413;49.878;8.142;2024-03-06T10:40:22;100469.44;;;15.55;59.57
66560;BME280;53413;49.878;8.142;2024-03-06T10:42:48;100470.63;;;15.50;60.29
66560;BME280;53413;49.878;8.142;2024-03-06T10:45:14;100472.19;;;15.54;61.33
66560;BME280;53413;49.878;8.142;2024-03-06T10:47:45;100471.09;;;15.41;61.40
66560;BME280;53413;49.878;8.142;2024-03-06T10:50:14;100467.19;;;15.48;61.72
66560;BME280;53413;49.878;8.142;2024-03-06T10:52:40;100456.81;;;15.45;61.57
66560;BME280;53413;49.878;8.142;2024-03-06T10:55:08;100460.00;;;15.34;62.52
66560;BME280;53413;49.878;8.142;2024-03-06T10:57:36;100468.75;;;15.52;62.62
66560;BME280;53413;49.878;8.142;2024-03-06T11:00:02;100470.78;;;15.47;61.69
66560;BME280;53413;49.878;8.142;2024-03-06T11:02:28;100471.09;;;15.41;62.28
66560;BME280;53413;49.878;8.142;2024-03-06T11:04:54;100473.94;;;15.53;60.87
66560;BME280;53413;49.878;8.142;2024-03-06T11:07:20;100478.25;;;15.56;59.96
66560;BME280;53413;49.878;8.142;2024-03-06T11:09:45;100474.13;;;15.50;59.90
66560;BME280;53413;49.878;8.142;2024-03-06T11:12:33;100475.31;;;15.45;60.71
66560;BME280;53413;49.878;8.142;2024-03-06T11:14:58;100471.78;;;15.44;60.71
66560;BME280;53413;49.878;8.142;2024-03-06T11:17:27;100472.19;;;15.54;61.10
66560;BME280;53413;49.878;8.142;2024-03-06T11:28:16;100466.19;;;15.85;59.29
66560;BME280;53413;49.878;8.142;2024-03-06T11:33:19;100454.88;;;15.82;59.46
66560;BME280;53413;49.878;8.142;2024-03-06T11:38:38;100462.69;;;15.67;59.94
66560;BME280;53413;49.878;8.142;2024-03-06T11:41:04;100459.75;;;15.56;60.30
66560;BME280;53413;49.878;8.142;2024-03-06T11:43:44;100465.19;;;15.53;60.66
66560;BME280;53413;49.878;8.142;2024-03-06T11:46:10;100463.31;;;15.55;60.76
66560;BME280;53413;49.878;8.142;2024-03-06T11:48:36;100462.94;;;15.63;60.69
66560;BME280;53413;49.878;8.142;2024-03-06T11:51:02;100462.09;;;15.96;59.91
66560;BME280;53413;49.878;8.142;2024-03-06T11:53:30;100466.13;;;16.03;59.08
66560;BME280;53413;49.878;8.142;2024-03-06T11:55:57;100458.13;;;16.21;58.78
66560;BME280;53413;49.878;8.142;2024-03-06T11:58:23;100457.88;;;16.25;58.49
66560;BME280;53413;49.878;8.142;2024-03-06T12:00:49;100463.94;;;16.43;58.03
66560;BME280;53413;49.878;8.142;2024-03-06T12:03:14;100454.56;;;16.54;58.31
66560;BME280;53413;49.878;8.142;2024-03-06T12:05:40;100461.59;;;16.85;56.93
66560;BME280;53413;49.878;8.142;2024-03-06T12:08:06;100450.91;;;17.33;55.79
66560;BME280;53413;49.878;8.142;2024-03-06T12:10:36;100453.72;;;17.61;54.93
66560;BME280;53413;49.878;8.142;2024-03-06T12:13:03;100455.91;;;17.38;54.77
66560;BME280;53413;49.878;8.142;2024-03-06T12:15:28;100460.28;;;17.25;55.17
66560;BME280;53413;49.878;8.142;2024-03-06T12:17:54;100456.16;;;17.49;54.70
66560;BME280;53413;49.878;8.142;2024-03-06T12:20:19;100465.41;;;17.42;54.83
66560;BME280;53413;49.878;8.142;2024-03-06T12:22:48;100455.47;;;17.31;55.44
66560;BME280;53413;49.878;8.142;2024-03-06T12:25:24;100469.44;;;17.03;55.53
66560;BME280;53413;49.878;8.142;2024-03-06T12:27:51;100471.25;;;16.86;56.29
66560;BME280;53413;49.878;8.142;2024-03-06T12:30:18;100467.19;;;16.65;56.17
66560;BME280;53413;49.878;8.142;2024-03-06T12:32:44;100470.06;;;16.60;56.66
66560;BME280;53413;49.878;8.142;2024-03-06T12:35:10;100466.75;;;16.56;56.88
66560;BME280;53413;49.878;8.142;2024-03-06T12:37:35;100462.59;;;16.52;56.82
66560;BME280;53413;49.878;8.142;2024-03-06T12:40:02;100463.41;;;16.69;56.98
66560;BME280;53413;49.878;8.142;2024-03-06T12:42:29;100455.81;;;16.78;57.28
66560;BME280;53413;49.878;8.142;2024-03-06T12:44:54;100460.00;;;16.67;57.77
66560;BME280;53413;49.878;8.142;2024-03-06T12:47:20;100461.66;;;16.53;58.22
66560;BME280;53413;49.878;8.142;2024-03-06T12:49:45;100452.06;;;16.35;58.74
66560;BME280;53413;49.878;8.142;2024-03-06T12:52:11;100459.38;;;16.13;58.74
66560;BME280;53413;49.878;8.142;2024-03-06T12:54:36;100461.88;;;16.16;59.03
66560;BME280;53413;49.878;8.142;2024-03-06T12:57:01;100456.41;;;16.04;58.97
66560;BME280;53413;49.878;8.142;2024-03-06T12:59:28;100453.59;;;16.07;59.65
66560;BME280;53413;49.878;8.142;2024-03-06T13:01:53;100462.38;;;16.07;59.04